createdAt,value
2022-08-22T00:01:07.670Z,98926.84
2022-08-22T00:02:42.673Z,99048.03
2022-08-22T00:03:15.576Z,98952.81
2022-08-22T00:03:15.794Z,98958.81
2022-08-22T00:03:52.182Z,98926.78
2022-08-22T00:06:38.050Z,98932.59
2022-08-22T00:09:24.620Z,98941.53
2022-08-22T00:12:04.264Z,98935.63
2022-08-22T00:14:50.345Z,98936.38
2022-08-22T00:17:27.899Z,98931.97
2022-08-22T00:20:10.888Z,98943.72
2022-08-22T00:23:07.739Z,98931.12
2022-08-22T00:25:45.032Z,98929.84
2022-08-22T00:28:23.395Z,98926.03
2022-08-22T00:30:52.840Z,98934.28
2022-08-22T00:33:46.742Z,98931.66
2022-08-22T00:36:31.089Z,98930.44
2022-08-22T00:39:15.211Z,98935.50
2022-08-22T00:42:08.659Z,98931.97
2022-08-22T00:45:03.072Z,98935.78
2022-08-22T00:48:03.661Z,98927.22
2022-08-22T00:51:09.639Z,98933.44
2022-08-22T00:53:40.349Z,98936.69
2022-08-22T00:56:31.558Z,98932.94
2022-08-22T00:59:24.187Z,98934.78
2022-08-22T01:02:09.903Z,98931.41
2022-08-22T01:05:08.568Z,98939.47
2022-08-22T01:07:41.556Z,98941.78
2022-08-22T01:10:34.171Z,98942.53
2022-08-22T01:13:17.140Z,98933.69
2022-08-22T01:15:45.053Z,98932.41
2022-08-22T01:18:27.670Z,98933.31
2022-08-22T01:21:24.378Z,98934.72
2022-08-22T01:24:07.254Z,98930.28
2022-08-22T01:27:00.654Z,98925.56
2022-08-22T01:29:43.284Z,98939.25
2022-08-22T01:32:43.043Z,98932.84
2022-08-22T01:35:16.442Z,98933.75
2022-08-22T01:38:03.154Z,98929.84
2022-08-22T01:41:02.093Z,98926.47
2022-08-22T01:43:59.995Z,98927.06
2022-08-22T01:46:28.568Z,98938.12
2022-08-22T01:49:13.003Z,98942.66
2022-08-22T01:51:48.581Z,98933.75
2022-08-22T01:54:25.521Z,98933.37
2022-08-22T01:56:59.890Z,98936.34
2022-08-22T01:59:36.245Z,98931.03
2022-08-22T02:02:57.478Z,98931.16
2022-08-22T02:05:50.420Z,98930.12
2022-08-22T02:08:38.439Z,98926.75
2022-08-22T02:11:12.662Z,98933.81
2022-08-22T02:14:00.446Z,98929.06
2022-08-22T02:16:31.261Z,98916.00
2022-08-22T02:19:14.032Z,98924.19
2022-08-22T02:21:44.079Z,98925.44
2022-08-22T02:24:29.388Z,98920.03
2022-08-22T02:27:27.199Z,98914.88
2022-08-22T02:30:15.690Z,98911.66
2022-08-22T02:32:52.054Z,98914.81
2022-08-22T02:35:29.034Z,98905.97
2022-08-22T02:38:19.733Z,98916.78
2022-08-22T02:41:05.142Z,98905.19
2022-08-22T02:43:46.700Z,98908.84
2022-08-22T02:46:23.547Z,98905.31
2022-08-22T02:49:45.878Z,98912.97
2022-08-22T02:52:34.163Z,98906.25
2022-08-22T02:55:07.243Z,98907.78
2022-08-22T02:57:52.762Z,98916.25
2022-08-22T03:00:31.512Z,98903.44
2022-08-22T03:03:17.206Z,98901.41
2022-08-22T03:05:44.851Z,98906.13
2022-08-22T03:08:22.247Z,98902.38
2022-08-22T03:11:09.132Z,98907.06
2022-08-22T03:14:07.513Z,98911.78
2022-08-22T03:17:13.082Z,98908.16
2022-08-22T03:19:46.702Z,98912.25
2022-08-22T03:22:26.689Z,98917.31
2022-08-22T03:25:10.588Z,98922.38
2022-08-22T03:27:48.297Z,98911.44
2022-08-22T03:30:37.126Z,98923.09
2022-08-22T03:33:20.228Z,98920.16
2022-08-22T03:35:47.551Z,98933.78
2022-08-22T03:38:15.174Z,98929.06
2022-08-22T03:41:10.049Z,98929.44
2022-08-22T03:43:56.060Z,98921.06
2022-08-22T03:47:02.103Z,98928.38
2022-08-22T03:49:43.603Z,98922.84
2022-08-22T03:52:29.081Z,98936.75
2022-08-22T03:55:25.461Z,98933.91
2022-08-22T03:58:28.015Z,98932.75
2022-08-22T04:01:04.443Z,98934.75
2022-08-22T04:03:41.633Z,98927.69
2022-08-22T04:06:39.940Z,98931.91
2022-08-22T04:09:32.145Z,98937.34
2022-08-22T04:12:10.614Z,98939.19
2022-08-22T04:14:58.113Z,98940.16
2022-08-22T04:17:32.359Z,98946.75
2022-08-22T04:20:29.361Z,98940.03
2022-08-22T04:23:15.094Z,98940.16
2022-08-22T04:25:48.814Z,98937.06
2022-08-22T04:28:29.300Z,98942.28
2022-08-22T04:31:17.555Z,98952.16
2022-08-22T04:33:51.076Z,98949.34
2022-08-22T04:36:30.415Z,98946.44
2022-08-22T04:39:21.399Z,98955.44
2022-08-22T04:41:54.169Z,98948.19
2022-08-22T04:44:30.187Z,98953.81
2022-08-22T04:47:07.137Z,98957.00
2022-08-22T04:49:43.739Z,98952.38
2022-08-22T04:52:35.855Z,98962.28
2022-08-22T04:55:29.147Z,98962.88
2022-08-22T04:58:33.410Z,98954.53
2022-08-22T05:01:14.789Z,98964.63
2022-08-22T05:03:51.293Z,98962.03
2022-08-22T05:06:20.558Z,98967.72
2022-08-22T05:08:53.744Z,98970.03
2022-08-22T05:11:23.420Z,98969.09
2022-08-22T05:13:56.281Z,98958.75
2022-08-22T05:16:28.497Z,98969.69
2022-08-22T05:19:06.693Z,98973.56
2022-08-22T05:21:36.271Z,98972.25
2022-08-22T05:24:10.053Z,98972.63
2022-08-22T05:26:42.800Z,98975.53
2022-08-22T05:29:12.266Z,98975.28
2022-08-22T05:32:02.017Z,98980.06
2022-08-22T05:34:40.450Z,98990.25
2022-08-22T05:37:21.114Z,98980.97
2022-08-22T05:39:53.014Z,98988.09
2022-08-22T05:42:30.244Z,98988.22
2022-08-22T05:44:58.044Z,98991.50
2022-08-22T05:47:37.236Z,98991.12
2022-08-22T05:50:18.881Z,98988.47
2022-08-22T05:53:10.003Z,98999.31
2022-08-22T05:55:41.500Z,99004.47
2022-08-22T05:58:39.977Z,99003.81
2022-08-22T06:01:42.476Z,99014.56
2022-08-22T06:04:35.932Z,99004.19
2022-08-22T06:07:08.077Z,99003.69
2022-08-22T06:09:47.851Z,99015.59
2022-08-22T06:12:16.995Z,99013.13
2022-08-22T06:15:20.988Z,99015.09
2022-08-22T06:18:00.056Z,99008.59
2022-08-22T06:20:50.151Z,99003.94
2022-08-22T06:23:24.384Z,99009.28
2022-08-22T06:25:53.478Z,99007.16
2022-08-22T06:28:26.161Z,99016.13
2022-08-22T06:30:55.800Z,99014.97
2022-08-22T06:33:28.993Z,99021.25
2022-08-22T06:36:30.594Z,99020.66
2022-08-22T06:39:04.062Z,99018.97
2022-08-22T06:41:35.689Z,99023.22
2022-08-22T06:44:04.660Z,99019.31
2022-08-22T06:46:35.761Z,99029.12
2022-08-22T06:49:05.280Z,99028.13
2022-08-22T06:51:35.931Z,99027.44
2022-08-22T06:54:06.002Z,99030.63
2022-08-22T06:56:52.747Z,99032.72
2022-08-22T06:59:30.655Z,99025.63
2022-08-22T07:02:10.502Z,99027.03
2022-08-22T07:04:38.396Z,99026.88
2022-08-22T07:07:08.730Z,99022.44
2022-08-22T07:09:38.832Z,99023.16
2022-08-22T07:12:20.530Z,99014.75
2022-08-22T07:14:50.678Z,99023.38
2022-08-22T07:17:22.148Z,99024.84
2022-08-22T07:20:10.939Z,99028.44
2022-08-22T07:22:38.738Z,99036.19
2022-08-22T07:25:12.625Z,99031.97
2022-08-22T07:27:51.508Z,99032.03
2022-08-22T07:30:27.332Z,99034.03
2022-08-22T07:33:24.908Z,99029.25
2022-08-22T07:36:00.454Z,99036.97
2022-08-22T07:38:43.980Z,99034.50
2022-08-22T07:41:17.168Z,99031.53
2022-08-22T07:43:48.722Z,99034.97
2022-08-22T07:46:33.416Z,99035.59
2022-08-22T07:49:21.428Z,99039.06
2022-08-22T07:51:55.573Z,99044.84
2022-08-22T07:54:27.356Z,99046.06
2022-08-22T07:57:05.910Z,99044.88
2022-08-22T08:06:36.933Z,99047.28
2022-08-22T08:09:05.009Z,99051.59
2022-08-22T08:11:36.479Z,99046.06
2022-08-22T08:14:07.280Z,99042.88
2022-08-22T08:17:02.240Z,99045.63
2022-08-22T08:19:31.222Z,99049.59
2022-08-22T08:21:59.257Z,99044.94
2022-08-22T08:24:37.088Z,99047.25
2022-08-22T08:27:32.503Z,99048.97
2022-08-22T08:30:14.686Z,99047.44
2022-08-22T08:32:48.219Z,99044.81
2022-08-22T08:35:25.628Z,99052.81
2022-08-22T08:38:19.867Z,99052.31
2022-08-22T08:41:01.440Z,99050.38
2022-08-22T08:43:47.952Z,99046.56
2022-08-22T08:46:24.805Z,99044.44
2022-08-22T08:49:12.726Z,99048.09
2022-08-22T08:51:50.953Z,99046.41
2022-08-22T08:54:57.645Z,99050.78
2022-08-22T08:57:33.990Z,99055.03
2022-08-22T09:00:14.362Z,99056.13
2022-08-22T09:03:31.013Z,99051.31
2022-08-22T09:06:15.380Z,99053.00
2022-08-22T09:09:20.472Z,99061.31
2022-08-22T09:11:57.602Z,99058.91
2022-08-22T09:14:58.984Z,99058.38
2022-08-22T09:18:05.663Z,99054.38
2022-08-22T09:20:51.799Z,99059.31
2022-08-22T09:23:59.014Z,99056.19
2022-08-22T09:26:44.764Z,99056.13
2022-08-22T09:29:36.048Z,99056.41
2022-08-22T09:32:44.536Z,99061.88
2022-08-22T09:35:49.641Z,99055.37
2022-08-22T09:38:48.020Z,99059.00
2022-08-22T09:41:35.104Z,99056.41
2022-08-22T09:44:27.909Z,99061.06
2022-08-22T09:47:15.538Z,99058.13
2022-08-22T09:50:17.078Z,99064.63
2022-08-22T09:52:45.618Z,99060.62
2022-08-22T09:55:35.623Z,99057.69
2022-08-22T09:58:16.542Z,99061.50
2022-08-22T10:01:13.609Z,99067.62
2022-08-22T10:04:19.730Z,99058.94
2022-08-22T10:07:02.153Z,99062.16
2022-08-22T10:09:57.504Z,99065.72
2022-08-22T10:12:36.081Z,99060.53
2022-08-22T10:15:30.553Z,99059.00
2022-08-22T10:18:05.562Z,99068.56
2022-08-22T10:20:50.502Z,99061.84
2022-08-22T10:23:23.868Z,99064.31
2022-08-22T10:26:22.981Z,99068.56
2022-08-22T10:29:37.072Z,99061.69
2022-08-22T10:32:35.064Z,99064.31
2022-08-22T10:35:25.799Z,99068.66
2022-08-22T10:37:59.427Z,99068.28
2022-08-22T10:40:32.764Z,99065.06
2022-08-22T10:43:15.105Z,99060.72
2022-08-22T10:45:48.282Z,99059.28
2022-08-22T10:48:44.437Z,99070.53
2022-08-22T10:51:17.114Z,99069.41
2022-08-22T10:54:32.888Z,99067.97
2022-08-22T10:57:20.709Z,99072.19
2022-08-22T11:00:25.555Z,99067.88
2022-08-22T11:03:07.835Z,99065.97
2022-08-22T11:05:50.161Z,99069.28
2022-08-22T11:08:39.811Z,99063.81
2022-08-22T11:11:26.137Z,99058.63
2022-08-22T11:14:09.776Z,99062.03
2022-08-22T11:17:12.021Z,99061.81
2022-08-22T11:20:20.168Z,99058.81
2022-08-22T11:23:23.878Z,99063.44
2022-08-22T11:26:06.247Z,99064.53
2022-08-22T11:28:57.018Z,99065.09
2022-08-22T11:31:36.750Z,99065.88
2022-08-22T11:34:20.451Z,99062.03
2022-08-22T11:36:54.646Z,99055.22
2022-08-22T11:39:58.076Z,99053.00
2022-08-22T11:43:04.889Z,99056.06
2022-08-22T11:45:45.864Z,99056.75
2022-08-22T11:48:30.100Z,99054.69
2022-08-22T11:51:14.224Z,99048.69
2022-08-22T11:54:02.872Z,99058.00
2022-08-22T11:56:53.281Z,99054.72
2022-08-22T11:59:43.106Z,99055.84
2022-08-22T12:02:19.507Z,99053.09
2022-08-22T12:04:55.076Z,99048.78
2022-08-22T12:07:29.613Z,99041.09
2022-08-22T12:10:07.833Z,99047.97
2022-08-22T12:13:01.345Z,99045.47
2022-08-22T12:16:04.454Z,99041.41
2022-08-22T12:18:45.714Z,99043.03
2022-08-22T12:21:45.606Z,99033.75
2022-08-22T12:24:54.776Z,99041.09
2022-08-22T12:27:50.844Z,99043.31
2022-08-22T12:30:54.619Z,99032.37
2022-08-22T12:33:43.925Z,99037.84
2022-08-22T12:36:23.131Z,99034.56
2022-08-22T12:38:54.186Z,99042.75
2022-08-22T12:42:01.377Z,99043.84
2022-08-22T12:44:56.255Z,99029.91
2022-08-22T12:48:05.482Z,99034.00
2022-08-22T12:50:50.298Z,99047.69
2022-08-22T12:53:59.567Z,99046.06
2022-08-22T12:56:57.701Z,99045.47
2022-08-22T12:59:26.600Z,99055.81
2022-08-22T13:01:57.249Z,99048.47
2022-08-22T13:04:33.219Z,99051.72
2022-08-22T13:07:18.966Z,99049.88
2022-08-22T13:09:53.048Z,99048.81
2022-08-22T13:12:23.849Z,99056.56
2022-08-22T13:15:20.708Z,99050.84
2022-08-22T13:17:54.651Z,99050.09
2022-08-22T13:20:28.209Z,99053.44
2022-08-22T13:22:56.660Z,99055.81
2022-08-22T13:25:26.641Z,99050.84
2022-08-22T13:27:59.326Z,99058.09
2022-08-22T13:30:39.522Z,99053.34
2022-08-22T13:33:11.107Z,99055.41
2022-08-22T13:35:52.018Z,99061.28
2022-08-22T13:38:27.507Z,99055.87
2022-08-22T13:40:56.978Z,99062.66
2022-08-22T13:43:30.925Z,99059.72
2022-08-22T13:46:03.876Z,99057.34
2022-08-22T13:48:50.634Z,99060.16
2022-08-22T13:51:36.651Z,99060.75
2022-08-22T13:54:15.398Z,99061.75
2022-08-22T13:57:07.944Z,99060.75
2022-08-22T13:59:54.850Z,99066.44
2022-08-22T14:02:49.133Z,99069.16
2022-08-22T14:05:28.765Z,99071.25
2022-08-22T14:08:01.435Z,99070.22
2022-08-22T14:10:36.213Z,99066.41
2022-08-22T14:13:29.769Z,99072.47
2022-08-22T14:16:03.432Z,99068.53
2022-08-22T14:18:45.536Z,99068.03
2022-08-22T14:21:50.881Z,99065.91
2022-08-22T14:24:33.180Z,99070.00
2022-08-22T14:27:16.246Z,99075.97
2022-08-22T14:29:53.828Z,99076.28
2022-08-22T14:32:23.389Z,99069.75
2022-08-22T14:35:02.267Z,99067.53
2022-08-22T14:37:34.458Z,99067.50
2022-08-22T14:40:27.192Z,99066.25
2022-08-22T14:43:06.677Z,99067.12
2022-08-22T14:45:38.560Z,99067.69
2022-08-22T14:48:30.257Z,99064.97
2022-08-22T14:51:13.079Z,99059.97
2022-08-22T14:53:40.790Z,99070.09
2022-08-22T14:56:18.149Z,99071.31
2022-08-22T14:58:51.492Z,99071.06
2022-08-22T15:01:21.987Z,99076.03
2022-08-22T15:04:00.438Z,99066.28
2022-08-22T15:06:37.094Z,99068.12
2022-08-22T15:09:25.935Z,99066.91
2022-08-22T15:11:53.454Z,99066.97
2022-08-22T15:15:03.303Z,99075.59
2022-08-22T15:17:43.988Z,99071.13
2022-08-22T15:20:36.294Z,99065.66
2022-08-22T15:23:21.363Z,99074.72
2022-08-22T15:26:13.324Z,99080.56
2022-08-22T15:28:52.333Z,99077.44
2022-08-22T15:31:21.513Z,99081.09
2022-08-22T15:33:51.920Z,99086.31
2022-08-22T15:36:26.212Z,99078.31
2022-08-22T15:39:28.970Z,99089.31
2022-08-22T15:41:57.391Z,99084.81
2022-08-22T15:44:33.550Z,99086.97
2022-08-22T15:47:10.662Z,99086.78
2022-08-22T15:49:58.516Z,99081.31
2022-08-22T15:52:29.144Z,99095.88
2022-08-22T15:55:10.790Z,99095.88
2022-08-22T15:57:40.715Z,99095.84
2022-08-22T16:00:33.208Z,99107.06
2022-08-22T16:03:25.637Z,99104.19
2022-08-22T16:05:56.986Z,99121.94
2022-08-22T16:08:29.618Z,99124.03
2022-08-22T16:11:03.879Z,99121.38
2022-08-22T16:13:39.432Z,99122.38
2022-08-22T16:16:45.583Z,99114.28
2022-08-22T16:19:26.035Z,99115.94
2022-08-22T16:21:54.245Z,99118.66
2022-08-22T16:24:22.116Z,99121.44
2022-08-22T16:26:50.119Z,99129.38
2022-08-22T16:29:35.905Z,99125.59
2022-08-22T16:32:11.587Z,99112.97
2022-08-22T16:34:43.942Z,99108.81
2022-08-22T16:37:17.815Z,99107.78
2022-08-22T16:39:50.322Z,99110.94
2022-08-22T16:42:25.188Z,99117.37
2022-08-22T16:44:58.953Z,99124.13
2022-08-22T16:47:41.808Z,99125.78
2022-08-22T16:50:15.568Z,99119.75
2022-08-22T16:52:58.562Z,99112.94
2022-08-22T16:55:28.894Z,99111.75
2022-08-22T16:58:55.770Z,99100.41
2022-08-22T17:02:04.811Z,99105.44
2022-08-22T17:05:07.066Z,99112.94
2022-08-22T17:07:52.796Z,99098.94
2022-08-22T17:10:39.147Z,99092.47
2022-08-22T17:13:26.519Z,99100.38
2022-08-22T17:16:17.426Z,99096.13
2022-08-22T17:19:05.464Z,99105.06
2022-08-22T17:21:40.527Z,99106.47
2022-08-22T17:24:32.176Z,99116.94
2022-08-22T17:27:28.995Z,99119.53
2022-08-22T17:30:07.517Z,99125.41
2022-08-22T17:33:13.473Z,99129.22
2022-08-22T17:35:46.039Z,99146.22
2022-08-22T17:38:45.824Z,99151.84
2022-08-22T17:41:19.675Z,99152.78
2022-08-22T17:43:57.944Z,99161.44
2022-08-22T17:46:47.384Z,99152.56
2022-08-22T17:49:28.923Z,99164.31
2022-08-22T17:52:19.094Z,99156.34
2022-08-22T17:54:58.721Z,99147.84
2022-08-22T17:57:36.135Z,99138.91
2022-08-22T18:00:17.154Z,99132.78
2022-08-22T18:02:51.438Z,99130.66
2022-08-22T18:05:25.095Z,99131.59
2022-08-22T18:11:14.888Z,99137.25
2022-08-22T18:14:09.566Z,99144.34
2022-08-22T18:16:53.594Z,99139.72
2022-08-22T18:20:04.276Z,99138.78
2022-08-22T18:22:34.825Z,99138.78
2022-08-22T18:25:21.284Z,99139.72
2022-08-22T18:27:49.133Z,99138.41
2022-08-22T18:30:23.965Z,99141.50
2022-08-22T18:33:06.625Z,99140.66
2022-08-22T18:35:45.175Z,99148.47
2022-08-22T18:38:23.763Z,99142.81
2022-08-22T18:40:59.852Z,99133.84
2022-08-22T18:43:50.943Z,99148.56
2022-08-22T18:46:39.914Z,99151.03
2022-08-22T18:49:36.222Z,99155.03
2022-08-22T18:52:16.809Z,99156.59
2022-08-22T18:55:03.634Z,99163.41
2022-08-22T18:58:09.580Z,99170.97
2022-08-22T19:01:15.875Z,99171.44
2022-08-22T19:04:02.970Z,99174.50
2022-08-22T19:06:53.228Z,99176.88
2022-08-22T19:09:47.395Z,99182.53
2022-08-22T19:12:28.012Z,99175.66
2022-08-22T19:15:34.878Z,99182.91
2022-08-22T19:18:24.144Z,99187.03
2022-08-22T19:21:41.228Z,99186.78
2022-08-22T19:24:34.946Z,99183.16
2022-08-22T19:27:18.582Z,99181.72
2022-08-22T19:29:46.525Z,99189.69
2022-08-22T19:33:00.783Z,99195.72
2022-08-22T19:35:41.368Z,99198.22
2022-08-22T19:38:52.397Z,99190.03
2022-08-22T19:41:40.101Z,99188.44
2022-08-22T19:44:20.277Z,99194.72
2022-08-22T19:47:02.829Z,99191.44
2022-08-22T19:49:34.530Z,99194.94
2022-08-22T19:52:12.416Z,99185.72
2022-08-22T19:55:06.808Z,99198.22
2022-08-22T19:57:55.632Z,99189.94
2022-08-22T20:00:41.495Z,99188.88
2022-08-22T20:03:32.787Z,99191.91
2022-08-22T20:06:13.795Z,99188.88
2022-08-22T20:09:11.034Z,99197.59
2022-08-22T20:11:54.621Z,99195.91
2022-08-22T20:14:37.209Z,99193.06
2022-08-22T20:17:34.544Z,99190.28
2022-08-22T20:20:18.899Z,99195.16
2022-08-22T20:23:14.064Z,99188.88
2022-08-22T20:25:49.057Z,99190.50
2022-08-22T20:28:46.207Z,99193.22
2022-08-22T20:31:24.388Z,99193.56
2022-08-22T20:34:07.144Z,99192.59
2022-08-22T20:36:35.649Z,99191.31
2022-08-22T20:39:08.798Z,99189.94
2022-08-22T20:41:42.074Z,99191.19
2022-08-22T20:44:13.109Z,99191.41
2022-08-22T20:46:46.901Z,99189.34
2022-08-22T20:49:28.891Z,99181.34
2022-08-22T20:51:59.929Z,99182.88
2022-08-22T20:54:34.081Z,99186.16
2022-08-22T20:57:23.884Z,99190.12
2022-08-22T21:00:14.256Z,99183.69
2022-08-22T21:02:54.821Z,99176.63
2022-08-22T21:05:32.908Z,99178.56
2022-08-22T21:08:10.362Z,99177.34
2022-08-22T21:10:57.839Z,99179.13
2022-08-22T21:13:28.394Z,99177.72
2022-08-22T21:16:00.185Z,99175.72
2022-08-22T21:18:31.179Z,99174.69
2022-08-22T21:21:25.554Z,99176.09
2022-08-22T21:24:00.863Z,99168.47
2022-08-22T21:26:33.296Z,99165.53
2022-08-22T21:29:07.755Z,99169.38
2022-08-22T21:31:53.827Z,99163.69
2022-08-22T21:34:35.805Z,99163.41
2022-08-22T21:37:09.160Z,99169.28
2022-08-22T21:39:42.822Z,99160.47
2022-08-22T21:42:38.542Z,99162.31
2022-08-22T21:45:06.715Z,99167.00
2022-08-22T21:47:37.034Z,99170.22
2022-08-22T21:50:26.045Z,99164.47
2022-08-22T21:52:53.654Z,99171.97
2022-08-22T21:55:30.275Z,99168.91
2022-08-22T21:58:07.162Z,99167.66
2022-08-22T22:01:21.063Z,99169.69
2022-08-22T22:03:54.096Z,99173.34
2022-08-22T22:06:21.603Z,99179.84
2022-08-22T22:08:49.191Z,99186.37
2022-08-22T22:11:17.335Z,99177.97
2022-08-22T22:13:45.292Z,99191.56
2022-08-22T22:16:14.081Z,99196.50
2022-08-22T22:18:44.230Z,99202.47
2022-08-22T22:21:15.291Z,99205.84
2022-08-22T22:23:50.830Z,99203.22
2022-08-22T22:26:21.016Z,99213.91
2022-08-22T22:28:50.218Z,99205.09
2022-08-22T22:31:18.352Z,99208.84
2022-08-22T22:33:46.090Z,99210.78
2022-08-22T22:36:17.959Z,99215.59
2022-08-22T22:38:48.376Z,99221.75
2022-08-22T22:41:21.272Z,99222.66
2022-08-22T22:43:48.709Z,99221.31
2022-08-22T22:46:16.155Z,99221.13
2022-08-22T22:48:43.960Z,99219.84
2022-08-22T22:51:12.345Z,99225.25
2022-08-22T22:53:40.321Z,99225.31
2022-08-22T22:56:17.792Z,99221.97
2022-08-22T22:58:50.728Z,99226.44
2022-08-22T23:01:28.585Z,99222.59
2022-08-22T23:03:57.567Z,99230.78
2022-08-22T23:06:27.138Z,99227.78
2022-08-22T23:08:57.919Z,99229.66
2022-08-22T23:11:28.065Z,99221.16
2022-08-22T23:13:56.116Z,99222.97
2022-08-22T23:16:27.312Z,99224.66
2022-08-22T23:18:55.309Z,99223.72
2022-08-22T23:21:29.292Z,99221.56
2022-08-22T23:23:58.642Z,99222.09
2022-08-22T23:26:27.174Z,99220.44
2022-08-22T23:28:54.947Z,99226.88
2022-08-22T23:31:38.957Z,99225.22
2022-08-22T23:34:08.934Z,99224.37
2022-08-22T23:36:37.441Z,99223.09
2022-08-22T23:39:06.455Z,99219.44
2022-08-22T23:41:34.736Z,99226.56
2022-08-22T23:44:04.666Z,99225.72
2022-08-22T23:46:32.115Z,99226.34
2022-08-22T23:49:01.818Z,99217.84
2022-08-22T23:51:29.288Z,99215.44
2022-08-22T23:53:57.652Z,99211.47
2022-08-22T23:56:32.091Z,99215.84
2022-08-22T23:59:01.446Z,99219.38
